Online Now
Guests 1
Members   0

24/7 FSX Server
IP: 97.89.8.204
@ KJFK until 2/23/18



Information and tools for flight simulation use only - NOT for real avaition

File Flight Plans Here

KJFK 180751Z 28007KT 6SM BR BKN007 OVC043 01/01 A2997 RMK AO2 SLP149 T00110006
Aviation Digital Data Service (ADDS)



Other FSX servers